sensor_id;sensor_type;location;lat;lon;timestamp;pressure;altitude;pressure_sealevel;temperature;humidity
58622;BME280;44389;51.578;5.456;2023-01-31T00:01:20;102374.84;;;1.31;100.00
58622;BME280;44389;51.578;5.456;2023-01-31T00:03:45;102380.53;;;1.28;100.00
58622;BME280;44389;51.578;5.456;2023-01-31T00:08:39;102379.66;;;1.28;100.00
58622;BME280;44389;51.578;5.456;2023-01-31T00:11:05;102379.47;;;1.26;100.00
58622;BME280;44389;51.578;5.456;2023-01-31T00:13:30;102389.84;;;1.19;100.00
58622;BME280;44389;51.578;5.456;2023-01-31T00:15:56;102395.66;;;1.18;100.00
58622;BME280;44389;51.578;5.456;2023-01-31T00:18:21;102393.88;;;1.17;100.00
58622;BME280;44389;51.578;5.456;2023-01-31T00:20:47;102400.03;;;1.10;100.00
58622;BME280;44389;51.578;5.456;2023-01-31T00:23:12;102400.91;;;1.11;100.00
58622;BME280;44389;51.578;5.456;2023-01-31T00:25:38;102404.22;;;1.10;100.00
58622;BME280;44389;51.578;5.456;2023-01-31T00:28:03;102414.09;;;1.07;100.00
58622;BME280;44389;51.578;5.456;2023-01-31T00:30:28;102410.53;;;1.05;100.00
58622;BME280;44389;51.578;5.456;2023-01-31T00:32:53;102414.41;;;1.01;100.00
58622;BME280;44389;51.578;5.456;2023-01-31T00:35:19;102414.28;;;1.00;100.00
58622;BME280;44389;51.578;5.456;2023-01-31T00:37:44;102409.66;;;0.95;100.00
58622;BME280;44389;51.578;5.456;2023-01-31T00:40:10;102399.97;;;0.91;100.00
58622;BME280;44389;51.578;5.456;2023-01-31T00:42:35;102397.28;;;0.90;100.00
58622;BME280;44389;51.578;5.456;2023-01-31T00:45:01;102395.06;;;0.84;100.00
58622;BME280;44389;51.578;5.456;2023-01-31T00:47:26;102392.97;;;0.80;100.00
58622;BME280;44389;51.578;5.456;2023-01-31T00:49:51;102389.41;;;0.78;100.00
58622;BME280;44389;51.578;5.456;2023-01-31T00:52:17;102380.75;;;0.76;100.00
58622;BME280;44389;51.578;5.456;2023-01-31T00:54:42;102392.09;;;0.79;100.00
58622;BME280;44389;51.578;5.456;2023-01-31T00:57:07;102393.91;;;0.72;100.00
58622;BME280;44389;51.578;5.456;2023-01-31T00:59:32;102387.78;;;0.70;100.00
58622;BME280;44389;51.578;5.456;2023-01-31T01:01:58;102389.31;;;0.68;100.00
58622;BME280;44389;51.578;5.456;2023-01-31T01:04:23;102384.09;;;0.66;100.00
58622;BME280;44389;51.578;5.456;2023-01-31T01:06:49;102388.25;;;0.65;100.00
58622;BME280;44389;51.578;5.456;2023-01-31T01:09:15;102382.91;;;0.62;100.00
58622;BME280;44389;51.578;5.456;2023-01-31T01:11:40;102377.97;;;0.64;100.00
58622;BME280;44389;51.578;5.456;2023-01-31T01:14:05;102380.16;;;0.70;100.00
58622;BME280;44389;51.578;5.456;2023-01-31T01:16:34;102362.13;;;0.67;100.00
58622;BME280;44389;51.578;5.456;2023-01-31T01:19:01;102364.06;;;0.69;100.00
58622;BME280;44389;51.578;5.456;2023-01-31T01:21:30;102358.38;;;0.72;100.00
58622;BME280;44389;51.578;5.456;2023-01-31T01:23:57;102347.03;;;0.77;100.00
58622;BME280;44389;51.578;5.456;2023-01-31T01:26:26;102342.22;;;0.80;100.00
58622;BME280;44389;51.578;5.456;2023-01-31T01:28:53;102344.34;;;0.75;100.00
58622;BME280;44389;51.578;5.456;2023-01-31T01:31:20;102344.47;;;0.77;100.00
58622;BME280;44389;51.578;5.456;2023-01-31T01:33:46;102342.81;;;0.77;100.00
58622;BME280;44389;51.578;5.456;2023-01-31T01:36:14;102342.53;;;0.74;100.00
58622;BME280;44389;51.578;5.456;2023-01-31T01:38:42;102348.38;;;0.73;100.00
58622;BME280;44389;51.578;5.456;2023-01-31T01:41:08;102342.53;;;0.74;100.00
58622;BME280;44389;51.578;5.456;2023-01-31T01:46:03;102343.28;;;0.73;100.00
58622;BME280;44389;51.578;5.456;2023-01-31T01:48:29;102334.81;;;0.73;100.00
58622;BME280;44389;51.578;5.456;2023-01-31T01:50:54;102339.25;;;0.75;100.00
58622;BME280;44389;51.578;5.456;2023-01-31T01:53:22;102337.03;;;0.70;100.00
58622;BME280;44389;51.578;5.456;2023-01-31T01:55:53;102337.03;;;0.70;100.00
58622;BME280;44389;51.578;5.456;2023-01-31T01:58:32;102334.34;;;0.68;100.00
58622;BME280;44389;51.578;5.456;2023-01-31T02:00:58;102330.34;;;0.70;100.00
58622;BME280;44389;51.578;5.456;2023-01-31T02:03:23;102331.53;;;0.74;100.00
58622;BME280;44389;51.578;5.456;2023-01-31T02:05:57;102335.06;;;0.76;100.00
58622;BME280;44389;51.578;5.456;2023-01-31T02:08:26;102337.19;;;0.71;100.00
58622;BME280;44389;51.578;5.456;2023-01-31T02:10:58;102347.03;;;0.68;100.00
58622;BME280;44389;51.578;5.456;2023-01-31T02:13:26;102342.41;;;0.73;100.00
58622;BME280;44389;51.578;5.456;2023-01-31T02:15:52;102342.28;;;0.71;100.00
58622;BME280;44389;51.578;5.456;2023-01-31T02:18:20;102346.16;;;0.68;100.00
58622;BME280;44389;51.578;5.456;2023-01-31T02:29:27;102368.19;;;0.77;100.00
58622;BME280;44389;51.578;5.456;2023-01-31T02:38:23;102351.25;;;0.95;100.00
58622;BME280;44389;51.578;5.456;2023-01-31T02:43:41;102333.31;;;1.03;100.00
58622;BME280;44389;51.578;5.456;2023-01-31T02:46:38;102331.81;;;1.05;100.00
58622;BME280;44389;51.578;5.456;2023-01-31T02:49:16;102334.34;;;1.05;100.00
58622;BME280;44389;51.578;5.456;2023-01-31T02:52:02;102343.13;;;1.08;100.00
58622;BME280;44389;51.578;5.456;2023-01-31T02:54:54;102337.44;;;1.11;100.00
58622;BME280;44389;51.578;5.456;2023-01-31T02:57:39;102338.47;;;1.13;100.00
58622;BME280;44389;51.578;5.456;2023-01-31T03:00:08;102340.28;;;1.14;100.00
58622;BME280;44389;51.578;5.456;2023-01-31T03:02:34;102344.88;;;1.18;100.00
58622;BME280;44389;51.578;5.456;2023-01-31T03:04:59;102339.94;;;1.20;100.00
58622;BME280;44389;51.578;5.456;2023-01-31T03:07:27;102340.69;;;1.19;100.00
58622;BME280;44389;51.578;5.456;2023-01-31T03:15:45;102332.94;;;1.17;100.00
58622;BME280;44389;51.578;5.456;2023-01-31T03:18:41;102337.00;;;1.15;100.00
58622;BME280;44389;51.578;5.456;2023-01-31T03:21:13;102332.03;;;1.17;100.00
58622;BME280;44389;51.578;5.456;2023-01-31T03:23:41;102331.31;;;1.18;100.00
58622;BME280;44389;51.578;5.456;2023-01-31T03:26:08;102329.16;;;1.22;100.00
58622;BME280;44389;51.578;5.456;2023-01-31T03:28:35;102322.91;;;1.19;100.00
58622;BME280;44389;51.578;5.456;2023-01-31T03:31:16;102320.72;;;1.13;100.00
58622;BME280;44389;51.578;5.456;2023-01-31T03:33:55;102316.38;;;1.12;100.00
58622;BME280;44389;51.578;5.456;2023-01-31T03:42:01;102309.81;;;1.14;100.00
58622;BME280;44389;51.578;5.456;2023-01-31T03:47:20;102309.06;;;1.15;100.00
58622;BME280;44389;51.578;5.456;2023-01-31T03:49:48;102300.03;;;1.19;100.00
58622;BME280;44389;51.578;5.456;2023-01-31T03:52:19;102298.91;;;1.15;100.00
58622;BME280;44389;51.578;5.456;2023-01-31T03:54:52;102299.91;;;1.17;100.00
58622;BME280;44389;51.578;5.456;2023-01-31T03:57:32;102300.22;;;1.20;100.00
58622;BME280;44389;51.578;5.456;2023-01-31T03:59:59;102288.53;;;1.22;100.00
58622;BME280;44389;51.578;5.456;2023-01-31T04:02:32;102292.84;;;1.23;100.00
58622;BME280;44389;51.578;5.456;2023-01-31T04:05:06;102287.28;;;1.27;100.00
58622;BME280;44389;51.578;5.456;2023-01-31T04:07:33;102284.88;;;1.29;100.00
58622;BME280;44389;51.578;5.456;2023-01-31T04:09:58;102289.34;;;1.31;100.00
58622;BME280;44389;51.578;5.456;2023-01-31T04:12:23;102292.66;;;1.30;100.00
58622;BME280;44389;51.578;5.456;2023-01-31T04:14:49;102296.97;;;1.31;100.00
58622;BME280;44389;51.578;5.456;2023-01-31T04:17:14;102282.22;;;1.27;100.00
58622;BME280;44389;51.578;5.456;2023-01-31T04:19:39;102289.84;;;1.27;100.00
58622;BME280;44389;51.578;5.456;2023-01-31T04:22:05;102283.38;;;1.31;100.00
58622;BME280;44389;51.578;5.456;2023-01-31T04:24:30;102290.13;;;1.30;100.00
58622;BME280;44389;51.578;5.456;2023-01-31T04:26:55;102287.59;;;1.30;100.00
58622;BME280;44389;51.578;5.456;2023-01-31T04:29:20;102281.47;;;1.28;100.00
58622;BME280;44389;51.578;5.456;2023-01-31T04:31:46;102286.69;;;1.30;100.00
58622;BME280;44389;51.578;5.456;2023-01-31T04:34:11;102280.84;;;1.31;100.00
58622;BME280;44389;51.578;5.456;2023-01-31T04:36:36;102275.03;;;1.32;100.00
58622;BME280;44389;51.578;5.456;2023-01-31T04:39:02;102275.78;;;1.31;100.00
58622;BME280;44389;51.578;5.456;2023-01-31T04:41:27;102280.41;;;1.26;100.00
58622;BME280;44389;51.578;5.456;2023-01-31T04:43:53;102278.66;;;1.25;100.00
58622;BME280;44389;51.578;5.456;2023-01-31T04:46:18;102281.47;;;1.28;100.00
58622;BME280;44389;51.578;5.456;2023-01-31T04:48:43;102277.13;;;1.27;100.00
58622;BME280;44389;51.578;5.456;2023-01-31T04:51:09;102271.91;;;1.26;100.00
58622;BME280;44389;51.578;5.456;2023-01-31T04:53:35;102263.56;;;1.27;100.00
58622;BME280;44389;51.578;5.456;2023-01-31T04:56:01;102255.31;;;1.29;100.00
58622;BME280;44389;51.578;5.456;2023-01-31T04:58:26;102246.78;;;1.29;100.00
58622;BME280;44389;51.578;5.456;2023-01-31T05:00:53;102245.16;;;1.29;100.00
58622;BME280;44389;51.578;5.456;2023-01-31T05:03:18;102250.25;;;1.29;100.00
58622;BME280;44389;51.578;5.456;2023-01-31T05:05:43;102243.63;;;1.31;100.00
58622;BME280;44389;51.578;5.456;2023-01-31T05:08:08;102246.94;;;1.30;100.00
58622;BME280;44389;51.578;5.456;2023-01-31T05:10:34;102243.16;;;1.36;100.00
58622;BME280;44389;51.578;5.456;2023-01-31T05:13:00;102236.56;;;1.38;100.00
58622;BME280;44389;51.578;5.456;2023-01-31T05:15:25;102243.44;;;1.39;100.00
58622;BME280;44389;51.578;5.456;2023-01-31T05:17:54;102245.97;;;1.39;100.00
58622;BME280;44389;51.578;5.456;2023-01-31T05:20:34;102240.75;;;1.37;100.00
58622;BME280;44389;51.578;5.456;2023-01-31T05:23:01;102234.16;;;1.39;100.00
58622;BME280;44389;51.578;5.456;2023-01-31T05:25:26;102229.06;;;1.39;100.00
58622;BME280;44389;51.578;5.456;2023-01-31T05:27:52;102231.91;;;1.42;100.00
58622;BME280;44389;51.578;5.456;2023-01-31T05:30:18;102227.69;;;1.43;100.00
58622;BME280;44389;51.578;5.456;2023-01-31T05:32:45;102233.94;;;1.46;100.00
58622;BME280;44389;51.578;5.456;2023-01-31T05:35:11;102239.91;;;1.47;100.00
58622;BME280;44389;51.578;5.456;2023-01-31T05:37:37;102232.47;;;1.48;100.00
58622;BME280;44389;51.578;5.456;2023-01-31T05:40:02;102227.38;;;1.48;100.00
58622;BME280;44389;51.578;5.456;2023-01-31T05:42:28;102208.69;;;1.48;100.00
58622;BME280;44389;51.578;5.456;2023-01-31T05:44:53;102212.88;;;1.47;100.00
58622;BME280;44389;51.578;5.456;2023-01-31T05:47:18;102226.75;;;1.51;100.00
58622;BME280;44389;51.578;5.456;2023-01-31T05:49:44;102221.66;;;1.51;100.00
58622;BME280;44389;51.578;5.456;2023-01-31T05:52:09;102215.69;;;1.51;100.00
58622;BME280;44389;51.578;5.456;2023-01-31T05:54:34;102213.13;;;1.51;100.00
58622;BME280;44389;51.578;5.456;2023-01-31T05:56:59;102210.88;;;1.54;100.00
58622;BME280;44389;51.578;5.456;2023-01-31T05:59:25;102214.44;;;1.56;100.00
58622;BME280;44389;51.578;5.456;2023-01-31T06:01:50;102212.03;;;1.57;100.00
58622;BME280;44389;51.578;5.456;2023-01-31T06:04:15;102219.66;;;1.57;100.00
58622;BME280;44389;51.578;5.456;2023-01-31T06:06:41;102228.44;;;1.61;100.00
58622;BME280;44389;51.578;5.456;2023-01-31T06:09:06;102227.81;;;1.63;100.00
58622;BME280;44389;51.578;5.456;2023-01-31T06:11:32;102223.66;;;1.64;100.00
58622;BME280;44389;51.578;5.456;2023-01-31T06:13:57;102220.47;;;1.67;100.00
58622;BME280;44389;51.578;5.456;2023-01-31T06:16:23;102212.06;;;1.68;100.00
58622;BME280;44389;51.578;5.456;2023-01-31T06:18:49;102211.59;;;1.72;100.00
58622;BME280;44389;51.578;5.456;2023-01-31T06:21:14;102215.03;;;1.72;100.00
58622;BME280;44389;51.578;5.456;2023-01-31T06:23:40;102204.09;;;1.73;100.00
58622;BME280;44389;51.578;5.456;2023-01-31T06:26:10;102208.56;;;1.76;100.00
58622;BME280;44389;51.578;5.456;2023-01-31T06:28:36;102212.88;;;1.77;100.00
58622;BME280;44389;51.578;5.456;2023-01-31T06:31:08;102206.41;;;1.80;100.00
58622;BME280;44389;51.578;5.456;2023-01-31T06:33:34;102210.00;;;1.83;100.00
58622;BME280;44389;51.578;5.456;2023-01-31T06:35:59;102210.88;;;1.83;100.00
58622;BME280;44389;51.578;5.456;2023-01-31T06:38:26;102204.91;;;1.83;100.00
58622;BME280;44389;51.578;5.456;2023-01-31T06:40:51;102196.53;;;1.84;100.00
58622;BME280;44389;51.578;5.456;2023-01-31T06:43:16;102198.44;;;1.86;100.00
58622;BME280;44389;51.578;5.456;2023-01-31T06:45:42;102198.69;;;1.89;100.00
58622;BME280;44389;51.578;5.456;2023-01-31T06:48:09;102192.84;;;1.90;100.00
58622;BME280;44389;51.578;5.456;2023-01-31T06:50:35;102185.97;;;1.89;100.00
58622;BME280;44389;51.578;5.456;2023-01-31T06:53:00;102182.69;;;1.90;100.00
58622;BME280;44389;51.578;5.456;2023-01-31T06:55:25;102183.69;;;1.92;100.00
58622;BME280;44389;51.578;5.456;2023-01-31T06:57:50;102193.22;;;1.95;100.00
58622;BME280;44389;51.578;5.456;2023-01-31T07:00:16;102188.16;;;1.95;100.00
58622;BME280;44389;51.578;5.456;2023-01-31T07:02:43;102195.44;;;2.01;100.00
58622;BME280;44389;51.578;5.456;2023-01-31T07:05:08;102194.69;;;2.02;100.00
58622;BME280;44389;51.578;5.456;2023-01-31T07:07:33;102179.78;;;2.06;100.00
58622;BME280;44389;51.578;5.456;2023-01-31T07:09:59;102182.47;;;2.08;100.00
58622;BME280;44389;51.578;5.456;2023-01-31T07:12:25;102187.06;;;2.12;100.00
58622;BME280;44389;51.578;5.456;2023-01-31T07:14:50;102175.50;;;2.16;100.00
58622;BME280;44389;51.578;5.456;2023-01-31T07:17:16;102187.56;;;2.18;100.00
58622;BME280;44389;51.578;5.456;2023-01-31T07:19:42;102176.66;;;2.19;100.00
58622;BME280;44389;51.578;5.456;2023-01-31T07:22:07;102179.47;;;2.22;100.00
58622;BME280;44389;51.578;5.456;2023-01-31T07:24:32;102172.34;;;2.28;100.00
58622;BME280;44389;51.578;5.456;2023-01-31T07:26:57;102169.16;;;2.31;100.00
58622;BME280;44389;51.578;5.456;2023-01-31T07:29:24;102147.06;;;2.40;100.00
58622;BME280;44389;51.578;5.456;2023-01-31T07:31:49;102175.41;;;2.45;100.00
58622;BME280;44389;51.578;5.456;2023-01-31T07:34:15;102165.50;;;2.48;100.00
58622;BME280;44389;51.578;5.456;2023-01-31T07:36:40;102164.72;;;2.49;100.00
58622;BME280;44389;51.578;5.456;2023-01-31T07:39:05;102177.44;;;2.49;100.00
58622;BME280;44389;51.578;5.456;2023-01-31T07:41:31;102161.28;;;2.49;100.00
58622;BME280;44389;51.578;5.456;2023-01-31T07:43:57;102160.53;;;2.50;100.00
58622;BME280;44389;51.578;5.456;2023-01-31T07:46:22;102169.97;;;2.51;100.00
58622;BME280;44389;51.578;5.456;2023-01-31T07:48:48;102161.53;;;2.52;100.00
58622;BME280;44389;51.578;5.456;2023-01-31T07:51:13;102149.09;;;2.55;100.00
58622;BME280;44389;51.578;5.456;2023-01-31T07:53:39;102147.41;;;2.55;100.00
58622;BME280;44389;51.578;5.456;2023-01-31T07:56:16;102145.00;;;2.57;100.00
58622;BME280;44389;51.578;5.456;2023-01-31T07:58:43;102137.50;;;2.58;100.00
58622;BME280;44389;51.578;5.456;2023-01-31T08:01:17;102146.16;;;2.60;100.00
58622;BME280;44389;51.578;5.456;2023-01-31T08:04:01;102138.00;;;2.64;100.00
58622;BME280;44389;51.578;5.456;2023-01-31T08:06:28;102143.34;;;2.68;100.00
58622;BME280;44389;51.578;5.456;2023-01-31T08:08:55;102139.25;;;2.70;100.00
58622;BME280;44389;51.578;5.456;2023-01-31T08:11:20;102139.53;;;2.73;100.00
58622;BME280;44389;51.578;5.456;2023-01-31T08:13:46;102131.25;;;2.75;100.00
58622;BME280;44389;51.578;5.456;2023-01-31T08:16:12;102119.41;;;2.76;100.00
58622;BME280;44389;51.578;5.456;2023-01-31T08:18:37;102128.06;;;2.78;100.00
58622;BME280;44389;51.578;5.456;2023-01-31T08:21:04;102130.84;;;2.81;100.00
58622;BME280;44389;51.578;5.456;2023-01-31T08:23:29;102133.91;;;2.87;100.00
58622;BME280;44389;51.578;5.456;2023-01-31T08:26:11;102123.19;;;2.91;100.00
58622;BME280;44389;51.578;5.456;2023-01-31T08:28:37;102122.56;;;2.94;100.00
58622;BME280;44389;51.578;5.456;2023-01-31T08:31:04;102122.19;;;3.00;100.00
58622;BME280;44389;51.578;5.456;2023-01-31T08:33:29;102115.53;;;3.02;100.00
58622;BME280;44389;51.578;5.456;2023-01-31T08:35:54;102119.34;;;3.07;100.00
58622;BME280;44389;51.578;5.456;2023-01-31T08:38:20;102116.28;;;3.11;100.00
58622;BME280;44389;51.578;5.456;2023-01-31T08:40:45;102097.94;;;3.15;100.00
58622;BME280;44389;51.578;5.456;2023-01-31T08:43:11;102107.72;;;3.21;100.00
58622;BME280;44389;51.578;5.456;2023-01-31T08:45:36;102101.97;;;3.23;100.00
58622;BME280;44389;51.578;5.456;2023-01-31T08:48:02;102100.69;;;3.28;100.00
58622;BME280;44389;51.578;5.456;2023-01-31T08:50:29;102103.47;;;3.32;100.00
58622;BME280;44389;51.578;5.456;2023-01-31T08:53:00;102099.41;;;3.34;100.00
58622;BME280;44389;51.578;5.456;2023-01-31T08:55:26;102092.78;;;3.36;100.00
58622;BME280;44389;51.578;5.456;2023-01-31T08:57:52;102085.47;;;3.40;100.00
58622;BME280;44389;51.578;5.456;2023-01-31T09:00:18;102083.28;;;3.45;100.00
58622;BME280;44389;51.578;5.456;2023-01-31T09:02:50;102092.41;;;3.53;100.00
58622;BME280;44389;51.578;5.456;2023-01-31T09:05:15;102081.69;;;3.57;100.00
58622;BME280;44389;51.578;5.456;2023-01-31T09:07:41;102084.50;;;3.60;100.00
58622;BME280;44389;51.578;5.456;2023-01-31T09:10:06;102084.50;;;3.60;100.00
58622;BME280;44389;51.578;5.456;2023-01-31T09:12:32;102070.94;;;3.61;100.00
58622;BME280;44389;51.578;5.456;2023-01-31T09:14:58;102072.63;;;3.61;100.00
58622;BME280;44389;51.578;5.456;2023-01-31T09:17:23;102085.47;;;3.62;100.00
58622;BME280;44389;51.578;5.456;2023-01-31T09:19:49;102073.00;;;3.66;100.00
58622;BME280;44389;51.578;5.456;2023-01-31T09:22:14;102075.00;;;3.70;100.00
58622;BME280;44389;51.578;5.456;2023-01-31T09:24:40;102059.53;;;3.78;100.00
58622;BME280;44389;51.578;5.456;2023-01-31T09:27:05;102052.91;;;3.92;100.00
58622;BME280;44389;51.578;5.456;2023-01-31T09:29:30;102052.53;;;4.10;100.00
58622;BME280;44389;51.578;5.456;2023-01-31T09:31:56;102063.19;;;4.16;100.00
58622;BME280;44389;51.578;5.456;2023-01-31T09:34:21;102073.44;;;4.28;100.00
58622;BME280;44389;51.578;5.456;2023-01-31T09:36:47;102053.38;;;4.33;100.00
58622;BME280;44389;51.578;5.456;2023-01-31T09:39:12;102073.25;;;4.37;100.00
58622;BME280;44389;51.578;5.456;2023-01-31T09:41:44;102077.47;;;4.48;100.00
58622;BME280;44389;51.578;5.456;2023-01-31T09:52:12;102070.63;;;4.94;100.00
58622;BME280;44389;51.578;5.456;2023-01-31T09:54:38;102062.63;;;5.02;100.00
58622;BME280;44389;51.578;5.456;2023-01-31T09:57:16;102064.59;;;5.06;100.00
58622;BME280;44389;51.578;5.456;2023-01-31T10:03:20;102061.75;;;5.01;100.00
58622;BME280;44389;51.578;5.456;2023-01-31T10:06:19;102059.97;;;4.88;100.00
58622;BME280;44389;51.578;5.456;2023-01-31T10:08:53;102040.41;;;4.77;100.00
58622;BME280;44389;51.578;5.456;2023-01-31T10:14:01;102041.75;;;4.84;100.00
58622;BME280;44389;51.578;5.456;2023-01-31T10:16:39;102033.09;;;4.93;100.00
58622;BME280;44389;51.578;5.456;2023-01-31T10:19:12;102035.41;;;5.02;100.00
58622;BME280;44389;51.578;5.456;2023-01-31T10:21:48;102035.72;;;5.07;100.00
58622;BME280;44389;51.578;5.456;2023-01-31T10:26:50;102038.28;;;4.95;100.00
58622;BME280;44389;51.578;5.456;2023-01-31T10:29:23;102052.50;;;4.91;100.00
58622;BME280;44389;51.578;5.456;2023-01-31T10:31:57;102059.97;;;4.88;100.00
58622;BME280;44389;51.578;5.456;2023-01-31T10:34:31;102052.19;;;4.87;100.00
58622;BME280;44389;51.578;5.456;2023-01-31T10:37:09;102059.97;;;4.88;100.00
58622;BME280;44389;51.578;5.456;2023-01-31T10:39:46;102063.75;;;4.93;100.00
58622;BME280;44389;51.578;5.456;2023-01-31T10:47:44;102055.72;;;5.01;100.00
58622;BME280;44389;51.578;5.456;2023-01-31T10:50:22;102043.28;;;5.05;100.00
58622;BME280;44389;51.578;5.456;2023-01-31T10:58:16;102036.16;;;5.13;100.00
58622;BME280;44389;51.578;5.456;2023-01-31T11:00:42;102022.03;;;5.18;100.00
58622;BME280;44389;51.578;5.456;2023-01-31T11:03:12;102044.81;;;5.27;100.00
58622;BME280;44389;51.578;5.456;2023-01-31T11:05:43;102035.91;;;5.34;100.00
58622;BME280;44389;51.578;5.456;2023-01-31T11:08:33;102027.84;;;5.41;100.00
58622;BME280;44389;51.578;5.456;2023-01-31T11:11:07;102022.75;;;5.41;100.00
58622;BME280;44389;51.578;5.456;2023-01-31T11:13:34;102017.88;;;5.44;100.00
58622;BME280;44389;51.578;5.456;2023-01-31T11:16:00;102014.53;;;5.45;100.00
58622;BME280;44389;51.578;5.456;2023-01-31T11:18:56;102009.13;;;5.54;100.00
58622;BME280;44389;51.578;5.456;2023-01-31T11:21:25;102004.69;;;5.51;100.00
58622;BME280;44389;51.578;5.456;2023-01-31T11:24:02;101993.94;;;5.55;100.00
58622;BME280;44389;51.578;5.456;2023-01-31T11:26:38;101983.31;;;5.63;100.00
58622;BME280;44389;51.578;5.456;2023-01-31T11:29:17;101990.13;;;5.62;100.00
58622;BME280;44389;51.578;5.456;2023-01-31T11:31:46;101994.91;;;5.57;100.00
58622;BME280;44389;51.578;5.456;2023-01-31T11:34:23;102000.00;;;5.57;100.00
58622;BME280;44389;51.578;5.456;2023-01-31T11:36:49;101995.56;;;5.55;100.00
58622;BME280;44389;51.578;5.456;2023-01-31T11:39:27;102002.28;;;5.53;100.00
58622;BME280;44389;51.578;5.456;2023-01-31T11:41:53;102002.94;;;5.50;100.00
58622;BME280;44389;51.578;5.456;2023-01-31T11:44:20;102001.38;;;5.52;100.00
58622;BME280;44389;51.578;5.456;2023-01-31T11:51:54;101979.13;;;5.51;100.00
58622;BME280;44389;51.578;5.456;2023-01-31T11:54:24;101974.00;;;5.51;100.00
58622;BME280;44389;51.578;5.456;2023-01-31T11:56:51;101990.25;;;5.52;100.00
58622;BME280;44389;51.578;5.456;2023-01-31T11:59:19;101986.81;;;5.51;100.00
58622;BME280;44389;51.578;5.456;2023-01-31T12:01:50;101978.25;;;5.51;100.00
58622;BME280;44389;51.578;5.456;2023-01-31T12:04:21;101985.06;;;5.50;100.00
58622;BME280;44389;51.578;5.456;2023-01-31T12:07:00;101979.81;;;5.49;100.00
58622;BME280;44389;51.578;5.456;2023-01-31T12:09:29;101985.81;;;5.49;100.00
58622;BME280;44389;51.578;5.456;2023-01-31T12:11:57;101982.25;;;5.47;100.00
58622;BME280;44389;51.578;5.456;2023-01-31T12:14:23;101988.81;;;5.55;100.00
58622;BME280;44389;51.578;5.456;2023-01-31T12:16:53;101973.91;;;5.50;100.00
58622;BME280;44389;51.578;5.456;2023-01-31T12:19:32;101978.34;;;5.52;100.00
58622;BME280;44389;51.578;5.456;2023-01-31T12:22:11;101980.91;;;5.52;100.00
58622;BME280;44389;51.578;5.456;2023-01-31T12:27:47;101980.28;;;5.43;100.00
58622;BME280;44389;51.578;5.456;2023-01-31T12:33:33;101971.09;;;5.33;100.00
58622;BME280;44389;51.578;5.456;2023-01-31T12:39:01;101957.00;;;5.26;100.00
58622;BME280;44389;51.578;5.456;2023-01-31T12:41:42;101967.78;;;5.22;100.00
58622;BME280;44389;51.578;5.456;2023-01-31T12:44:44;101970.34;;;5.22;100.00
58622;BME280;44389;51.578;5.456;2023-01-31T12:47:36;101964.13;;;5.19;100.00
58622;BME280;44389;51.578;5.456;2023-01-31T12:50:29;101963.25;;;5.18;100.00
58622;BME280;44389;51.578;5.456;2023-01-31T12:53:08;101950.47;;;5.18;100.00
58622;BME280;44389;51.578;5.456;2023-01-31T12:55:48;101961.59;;;5.19;100.00
58622;BME280;44389;51.578;5.456;2023-01-31T13:01:08;101955.78;;;5.21;100.00
58622;BME280;44389;51.578;5.456;2023-01-31T13:03:53;101953.38;;;5.23;100.00
58622;BME280;44389;51.578;5.456;2023-01-31T13:06:25;101951.69;;;5.23;100.00
58622;BME280;44389;51.578;5.456;2023-01-31T13:09:01;101948.34;;;5.24;100.00
58622;BME280;44389;51.578;5.456;2023-01-31T13:11:36;101945.81;;;5.24;100.00
58622;BME280;44389;51.578;5.456;2023-01-31T13:14:04;101934.81;;;5.25;100.00
58622;BME280;44389;51.578;5.456;2023-01-31T13:16:37;101941.88;;;5.30;100.00
58622;BME280;44389;51.578;5.456;2023-01-31T13:19:13;101947.00;;;5.30;100.00
58622;BME280;44389;51.578;5.456;2023-01-31T13:21:45;101950.44;;;5.30;100.00
58622;BME280;44389;51.578;5.456;2023-01-31T13:24:17;101951.44;;;5.32;100.00
58622;BME280;44389;51.578;5.456;2023-01-31T13:26:47;101942.19;;;5.34;100.00
58622;BME280;44389;51.578;5.456;2023-01-31T13:29:29;101954.28;;;5.37;100.00
58622;BME280;44389;51.578;5.456;2023-01-31T13:34:54;101938.50;;;5.42;100.00
58622;BME280;44389;51.578;5.456;2023-01-31T13:37:21;101946.28;;;5.44;100.00
58622;BME280;44389;51.578;5.456;2023-01-31T13:39:50;101937.81;;;5.45;100.00
58622;BME280;44389;51.578;5.456;2023-01-31T13:42:18;101938.13;;;5.50;100.00
58622;BME280;44389;51.578;5.456;2023-01-31T13:44:45;101933.09;;;5.51;100.00
58622;BME280;44389;51.578;5.456;2023-01-31T13:49:52;101936.31;;;5.60;100.00
58622;BME280;44389;51.578;5.456;2023-01-31T13:52:22;101928.81;;;5.64;100.00
58622;BME280;44389;51.578;5.456;2023-01-31T13:54:55;101941.13;;;5.69;100.00
58622;BME280;44389;51.578;5.456;2023-01-31T13:57:25;101937.34;;;5.76;100.00
58622;BME280;44389;51.578;5.456;2023-01-31T14:00:09;101934.38;;;5.83;100.00
58622;BME280;44389;51.578;5.456;2023-01-31T14:03:08;101936.66;;;5.92;100.00
58622;BME280;44389;51.578;5.456;2023-01-31T14:14:09;101935.84;;;6.05;100.00
58622;BME280;44389;51.578;5.456;2023-01-31T14:16:37;101942.13;;;6.10;100.00
58622;BME280;44389;51.578;5.456;2023-01-31T14:27:36;101967.06;;;6.26;100.00
58622;BME280;44389;51.578;5.456;2023-01-31T14:43:00;101977.19;;;6.24;100.00
58622;BME280;44389;51.578;5.456;2023-01-31T14:50:46;102000.25;;;6.24;100.00
58622;BME280;44389;51.578;5.456;2023-01-31T14:58:59;101995.03;;;6.23;100.00
58622;BME280;44389;51.578;5.456;2023-01-31T15:01:32;101996.91;;;6.25;100.00
58622;BME280;44389;51.578;5.456;2023-01-31T15:03:59;101996.13;;;6.26;100.00
58622;BME280;44389;51.578;5.456;2023-01-31T15:06:27;101997.31;;;6.32;100.00
58622;BME280;44389;51.578;5.456;2023-01-31T15:11:45;101994.53;;;6.29;100.00